Terminal Aerodrome Forecast
Issued by NWS

Home | Current Version | Previous Version | Text Only | Print | Product List | Glossary On
Versions: 1 2 3 4 5 6 7 8 9 10 11 12 13 14 15 16 17 18
000
FTUS43 KAPX 161020 AAA
TAFPLN
TAF AMD
KPLN 161020Z 1610/1706 23009G15KT P6SM SCT250
     FM161400 24009KT P6SM SCT250
     FM170200 00000KT P6SM BKN250
     FM170500 10002KT P6SM BKN100=

USA.gov is the U.S. government's official web portal to all federal, state and local government web resources and services.